Time;durP1;ratioP1;P1;durP2;ratioP2;P2;SDS_P1;SDS_P2;PMS_P1;PMS_P2;Temp;Humidity;BMP_temperature;BMP_pressure;BME280_temperature;BME280_humidity;BME280_pressure;Samples;Min_cycle;Max_cycle;Signal;HPM_P1;HPM_P2
2022/05/04 00:00:49;;;;;;;;;27.67;23.67;;;;;;;;5035503;28;45550;-84
2022/05/04 00:03:15;;;;;;;;;26.33;23.00;;;;;;;;5034929;28;45688;-84
2022/05/04 00:05:40;;;;;;;;;26.67;24.00;;;;;;;;5036310;28;45376;-82
2022/05/04 00:08:06;;;;;;;;;29.67;23.00;;;;;;;;5036267;28;45794;-83
2022/05/04 00:10:31;;;;;;;;;22.33;20.00;;;;;;;;5038625;28;45969;-83
2022/05/04 00:12:57;;;;;;;;;27.33;24.00;;;;;;;;5036785;28;45498;-83
2022/05/04 00:15:23;;;;;;;;;21.67;20.33;;;;;;;;5041577;28;45509;-84
2022/05/04 00:17:49;;;;;;;;;33.33;23.00;;;;;;;;5055297;28;45579;-84
2022/05/04 00:20:14;;;;;;;;;26.33;22.67;;;;;;;;5045658;28;45424;-83
2022/05/04 00:22:43;;;;;;;;;25.33;25.33;;;;;;;;5056488;28;45356;-84
2022/05/04 00:25:09;;;;;;;;;28.33;26.67;;;;;;;;5038355;28;45412;-82
2022/05/04 00:28:12;;;;;;;;;;;;;;;;;;;;;
2022/05/04 00:30:38;;;;;;;;;26.33;26.33;;;;;;;;5055169;28;75646;-84
2022/05/04 00:33:04;;;;;;;;;28.33;25.67;;;;;;;;5032485;28;45641;-83
2022/05/04 00:35:31;;;;;;;;;31.67;31.00;;;;;;;;5056237;28;45777;-84
2022/05/04 00:37:56;;;;;;;;;36.67;27.33;;;;;;;;5042382;28;45703;-85
2022/05/04 00:40:22;;;;;;;;;35.00;27.33;;;;;;;;5038961;28;48125;-85
2022/05/04 00:42:48;;;;;;;;;29.00;25.33;;;;;;;;5038353;28;45953;-83
2022/05/04 00:45:13;;;;;;;;;29.00;21.67;;;;;;;;5022269;28;45477;-83
2022/05/04 00:47:39;;;;;;;;;30.67;25.33;;;;;;;;5024058;28;45506;-82
2022/05/04 00:50:08;;;;;;;;;36.67;30.33;;;;;;;;5017777;28;46586;-84
2022/05/04 00:52:40;;;;;;;;;31.67;28.33;;;;;;;;5057807;28;44778;-85
2022/05/04 00:55:09;;;;;;;;;33.00;29.67;;;;;;;;5060687;28;45485;-82
2022/05/04 01:00:23;;;;;;;;;34.00;29.00;;;;;;;;5055830;28;45790;-87
2022/05/04 01:02:48;;;;;;;;;24.33;20.67;;;;;;;;5035700;28;45776;-85
2022/05/04 01:05:14;;;;;;;;;36.67;31.00;;;;;;;;5019715;28;45502;-86
2022/05/04 01:07:40;;;;;;;;;29.67;27.00;;;;;;;;5034411;28;45597;-82
2022/05/04 01:10:06;;;;;;;;;35.00;25.00;;;;;;;;5038697;28;46435;-85
2022/05/04 01:12:35;;;;;;;;;30.00;27.33;;;;;;;;5020110;28;45697;-83
2022/05/04 01:15:04;;;;;;;;;34.67;30.00;;;;;;;;5039546;28;45404;-85
2022/05/04 01:17:29;;;;;;;;;37.67;28.67;;;;;;;;5041829;28;45502;-85
2022/05/04 01:19:59;;;;;;;;;29.33;23.00;;;;;;;;5044165;28;47483;-85
2022/05/04 01:22:25;;;;;;;;;25.67;22.67;;;;;;;;5042016;28;45323;-86
2022/05/04 01:24:55;;;;;;;;;31.00;24.67;;;;;;;;5063254;28;45688;-84
2022/05/04 01:27:20;;;;;;;;;26.67;24.00;;;;;;;;5057786;28;45557;-85
2022/05/04 01:29:48;;;;;;;;;24.67;23.00;;;;;;;;5042889;28;47015;-82
2022/05/04 01:32:13;;;;;;;;;41.00;29.33;;;;;;;;5035600;28;45368;-83
2022/05/04 01:34:39;;;;;;;;;26.00;25.33;;;;;;;;5058311;28;45501;-83
2022/05/04 01:37:04;;;;;;;;;37.00;28.00;;;;;;;;5046345;28;45925;-84
2022/05/04 01:40:17;;;;;;;;;;;;;;;;;;;;;
2022/05/04 01:43:11;;;;;;;;;37.67;28.00;;;;;;;;5046766;28;72392;-83
2022/05/04 01:45:37;;;;;;;;;29.67;25.33;;;;;;;;5025540;28;45452;-86
2022/05/04 01:48:06;;;;;;;;;29.00;24.67;;;;;;;;5049734;28;45666;-86
2022/05/04 01:50:34;;;;;;;;;27.00;25.00;;;;;;;;5042914;28;47213;-84
2022/05/04 01:53:10;;;;;;;;;27.33;23.67;;;;;;;;5050942;28;45480;-84
2022/05/04 01:55:36;;;;;;;;;30.67;25.00;;;;;;;;5045341;28;45522;-86
2022/05/04 01:58:03;;;;;;;;;31.33;27.00;;;;;;;;5063809;28;45336;-82
2022/05/04 02:00:29;;;;;;;;;31.67;26.67;;;;;;;;5054565;28;45472;-87
2022/05/04 02:02:54;;;;;;;;;23.67;18.00;;;;;;;;5060712;28;45705;-86
2022/05/04 02:08:21;;;;;;;;;35.00;30.33;;;;;;;;5007458;28;45445;-86
2022/05/04 02:10:46;;;;;;;;;29.33;21.33;;;;;;;;5030568;28;46144;-85
2022/05/04 02:13:12;;;;;;;;;37.00;28.00;;;;;;;;5039938;28;45396;-85
2022/05/04 02:15:38;;;;;;;;;32.00;25.33;;;;;;;;5040499;28;45572;-84
2022/05/04 02:18:03;;;;;;;;;38.33;28.33;;;;;;;;5045536;28;45336;-84
2022/05/04 02:20:29;;;;;;;;;33.00;25.67;;;;;;;;5061010;28;46660;-85
2022/05/04 02:22:54;;;;;;;;;29.67;26.33;;;;;;;;5057720;28;45512;-83
2022/05/04 02:25:20;;;;;;;;;24.67;21.33;;;;;;;;5061323;28;45419;-83
2022/05/04 02:27:45;;;;;;;;;30.67;27.33;;;;;;;;5059153;28;45939;-85
2022/05/04 02:30:13;;;;;;;;;30.33;26.33;;;;;;;;5081361;28;45673;-83
2022/05/04 02:32:39;;;;;;;;;30.67;25.00;;;;;;;;5061051;28;45613;-84
2022/05/04 02:37:54;;;;;;;;;31.33;28.67;;;;;;;;5082936;28;45053;-82
2022/05/04 02:40:19;;;;;;;;;31.00;26.33;;;;;;;;5084054;28;46308;-81
2022/05/04 02:42:46;;;;;;;;;26.00;22.33;;;;;;;;5082718;28;45438;-82
2022/05/04 02:45:12;;;;;;;;;35.33;28.33;;;;;;;;5072604;28;45150;-83
2022/05/04 02:47:38;;;;;;;;;32.33;28.33;;;;;;;;5074654;28;45426;-83
2022/05/04 02:50:04;;;;;;;;;35.33;25.67;;;;;;;;5057274;28;46728;-82
2022/05/04 02:52:32;;;;;;;;;29.33;23.00;;;;;;;;5056860;28;45404;-83
2022/05/04 02:55:02;;;;;;;;;30.33;24.33;;;;;;;;5036834;28;45900;-83
2022/05/04 02:57:28;;;;;;;;;28.00;23.67;;;;;;;;5038928;28;45883;-81
2022/05/04 02:59:56;;;;;;;;;30.33;24.33;;;;;;;;5054227;28;45742;-82
2022/05/04 03:02:27;;;;;;;;;31.33;29.33;;;;;;;;5066069;28;45761;-81
2022/05/04 03:05:00;;;;;;;;;29.33;24.67;;;;;;;;5074221;28;45786;-82
2022/05/04 03:07:26;;;;;;;;;25.00;24.33;;;;;;;;5077852;28;45506;-82
2022/05/04 03:09:53;;;;;;;;;37.00;29.67;;;;;;;;5057185;28;46118;-82
2022/05/04 03:12:24;;;;;;;;;29.67;23.33;;;;;;;;5060086;28;45713;-82
2022/05/04 03:14:51;;;;;;;;;29.00;23.00;;;;;;;;5057361;28;45865;-82
2022/05/04 03:17:20;;;;;;;;;26.67;25.67;;;;;;;;5076126;28;45838;-84
2022/05/04 03:19:52;;;;;;;;;30.00;24.33;;;;;;;;5037357;28;46868;-86
2022/05/04 03:22:17;;;;;;;;;25.00;22.33;;;;;;;;5039496;28;45515;-81
2022/05/04 03:24:43;;;;;;;;;30.33;24.67;;;;;;;;5056570;28;45461;-82
2022/05/04 03:27:08;;;;;;;;;29.00;28.00;;;;;;;;5040235;28;45419;-83
2022/05/04 03:29:35;;;;;;;;;35.33;28.67;;;;;;;;5041131;28;46905;-86
2022/05/04 03:32:03;;;;;;;;;30.00;28.33;;;;;;;;5036472;28;45850;-83
2022/05/04 03:34:29;;;;;;;;;30.33;28.67;;;;;;;;5037140;28;45361;-81
2022/05/04 03:36:54;;;;;;;;;33.00;29.33;;;;;;;;5034921;28;45638;-82
2022/05/04 03:39:20;;;;;;;;;30.00;27.00;;;;;;;;5039678;28;45759;-84
2022/05/04 03:41:45;;;;;;;;;29.67;24.67;;;;;;;;5038968;28;45426;-81
2022/05/04 03:44:11;;;;;;;;;40.00;30.33;;;;;;;;5059037;28;45707;-81
2022/05/04 03:46:45;;;;;;;;;31.33;23.33;;;;;;;;5056336;28;45434;-82
2022/05/04 03:49:11;;;;;;;;;29.67;28.00;;;;;;;;5057602;28;46645;-81
2022/05/04 03:51:41;;;;;;;;;32.33;27.33;;;;;;;;5037243;28;45639;-81
2022/05/04 03:54:07;;;;;;;;;32.00;28.33;;;;;;;;5059285;28;45359;-83
2022/05/04 03:56:33;;;;;;;;;31.67;28.67;;;;;;;;5038706;28;47142;-83
2022/05/04 03:59:00;;;;;;;;;27.33;22.33;;;;;;;;5038652;28;46662;-83
2022/05/04 04:01:25;;;;;;;;;35.00;29.33;;;;;;;;5056524;28;45287;-81
2022/05/04 04:03:51;;;;;;;;;25.67;24.67;;;;;;;;5036632;28;45861;-83
2022/05/04 04:06:17;;;;;;;;;36.33;30.33;;;;;;;;5059813;28;45543;-85
2022/05/04 04:08:46;;;;;;;;;34.33;30.67;;;;;;;;5057379;28;46423;-82
2022/05/04 04:11:12;;;;;;;;;30.33;29.67;;;;;;;;5041473;28;45773;-82
2022/05/04 04:13:38;;;;;;;;;30.00;28.67;;;;;;;;5037231;28;45077;-82
2022/05/04 04:16:07;;;;;;;;;27.33;25.00;;;;;;;;5044136;28;45537;-84
2022/05/04 04:18:33;;;;;;;;;30.33;27.33;;;;;;;;5057123;28;45530;-83
2022/05/04 04:24:03;;;;;;;;;35.00;27.33;;;;;;;;5055084;28;45907;-83
2022/05/04 04:26:28;;;;;;;;;36.00;28.00;;;;;;;;5059543;28;45524;-83
2022/05/04 04:28:53;;;;;;;;;36.00;30.00;;;;;;;;5031638;28;47433;-85
2022/05/04 04:31:21;;;;;;;;;35.33;24.33;;;;;;;;5038368;28;44961;-83
2022/05/04 04:33:47;;;;;;;;;46.33;37.00;;;;;;;;5036601;28;45439;-82
2022/05/04 04:36:12;;;;;;;;;53.67;41.67;;;;;;;;5058544;28;45550;-85
2022/05/04 04:38:38;;;;;;;;;54.50;42.50;;;;;;;;5057690;28;45362;-83
2022/05/04 04:41:20;;;;;;;;;35.67;31.67;;;;;;;;5028442;28;45407;-84
2022/05/04 04:43:57;;;;;;;;;34.33;29.33;;;;;;;;5017876;28;45757;-83
2022/05/04 04:46:25;;;;;;;;;36.33;31.00;;;;;;;;5032040;28;45473;-83
2022/05/04 04:48:51;;;;;;;;;29.00;26.33;;;;;;;;5060219;28;45704;-83
2022/05/04 04:51:17;;;;;;;;;37.00;29.33;;;;;;;;5061692;28;45395;-86
2022/05/04 04:53:42;;;;;;;;;32.00;28.00;;;;;;;;5029031;28;45717;-84
2022/05/04 04:56:08;;;;;;;;;28.33;24.33;;;;;;;;5038950;28;45872;-81
2022/05/04 04:58:34;;;;;;;;;44.67;34.33;;;;;;;;5058155;28;46858;-81
2022/05/04 05:00:59;;;;;;;;;31.67;30.33;;;;;;;;5040425;28;45684;-85
2022/05/04 05:03:28;;;;;;;;;30.33;25.00;;;;;;;;5034200;28;45843;-82
2022/05/04 05:05:53;;;;;;;;;28.00;24.67;;;;;;;;5029633;28;45357;-83
2022/05/04 05:08:19;;;;;;;;;28.00;25.00;;;;;;;;5048545;28;45387;-83
2022/05/04 05:10:44;;;;;;;;;31.00;27.33;;;;;;;;5041055;28;45670;-81
2022/05/04 05:13:10;;;;;;;;;32.33;28.67;;;;;;;;5041702;28;45473;-82
2022/05/04 05:18:20;;;;;;;;;30.00;24.33;;;;;;;;5052267;28;45492;-85
2022/05/04 05:20:49;;;;;;;;;34.33;29.33;;;;;;;;5056484;28;45218;-83
2022/05/04 05:23:31;;;;;;;;;33.00;25.00;;;;;;;;5077996;28;45375;-84
2022/05/04 05:26:41;;;;;;;;;37.33;28.00;;;;;;;;5056135;28;45438;-82
2022/05/04 05:29:05;;;;;;;;;33.33;29.33;;;;;;;;5078305;28;45478;-80
2022/05/04 05:31:40;;;;;;;;;40.00;35.33;;;;;;;;5077388;28;45567;-81
2022/05/04 05:34:06;;;;;;;;;32.67;27.67;;;;;;;;5043439;28;45530;-78
2022/05/04 05:36:31;;;;;;;;;33.67;28.33;;;;;;;;5056661;28;45963;-83
2022/05/04 05:39:13;;;;;;;;;30.67;23.67;;;;;;;;5059259;28;46871;-81
2022/05/04 05:41:43;;;;;;;;;31.00;24.33;;;;;;;;5057635;28;45897;-80
2022/05/04 05:44:23;;;;;;;;;32.00;25.33;;;;;;;;5064497;28;45473;-79
2022/05/04 05:47:06;;;;;;;;;28.00;26.00;;;;;;;;5058136;28;45710;-81
2022/05/04 05:49:54;;;;;;;;;28.33;26.00;;;;;;;;5078085;28;46188;-83
2022/05/04 05:52:31;;;;;;;;;33.67;27.67;;;;;;;;5056207;28;45438;-84
2022/05/04 05:54:59;;;;;;;;;28.00;25.00;;;;;;;;5076038;28;45518;-86
2022/05/04 05:57:25;;;;;;;;;28.00;25.67;;;;;;;;5060502;28;47019;-82
2022/05/04 05:59:50;;;;;;;;;35.67;24.33;;;;;;;;5075390;28;45925;-80
2022/05/04 06:02:16;;;;;;;;;33.00;29.00;;;;;;;;5075445;28;45464;-83
2022/05/04 06:04:42;;;;;;;;;31.67;24.00;;;;;;;;5052773;28;45340;-83
2022/05/04 06:07:11;;;;;;;;;28.33;20.00;;;;;;;;5056954;28;46868;-83
2022/05/04 06:09:36;;;;;;;;;22.00;19.33;;;;;;;;5058614;28;45551;-81
2022/05/04 06:12:02;;;;;;;;;24.67;21.00;;;;;;;;5078338;28;45469;-82
2022/05/04 06:14:28;;;;;;;;;33.00;26.00;;;;;;;;5071649;28;45451;-82
2022/05/04 06:16:53;;;;;;;;;36.67;26.67;;;;;;;;5070819;28;45462;-84
2022/05/04 06:19:23;;;;;;;;;27.33;22.33;;;;;;;;5057616;28;48042;-81
2022/05/04 06:21:52;;;;;;;;;30.67;25.33;;;;;;;;5064045;28;44920;-84
2022/05/04 06:24:18;;;;;;;;;32.33;26.67;;;;;;;;5054923;28;45480;-83
2022/05/04 06:26:44;;;;;;;;;32.33;25.67;;;;;;;;5055320;28;45339;-80
2022/05/04 06:29:10;;;;;;;;;25.00;20.33;;;;;;;;5049490;28;46380;-80
2022/05/04 06:34:19;;;;;;;;;27.67;26.33;;;;;;;;5040262;28;45435;-80
2022/05/04 06:37:00;;;;;;;;;27.00;22.67;;;;;;;;5055155;28;45593;-82
2022/05/04 06:39:27;;;;;;;;;28.67;21.00;;;;;;;;5046087;28;45799;-82
2022/05/04 06:41:53;;;;;;;;;25.33;23.33;;;;;;;;5046819;28;45384;-80
2022/05/04 06:44:19;;;;;;;;;25.67;23.33;;;;;;;;5039514;28;45345;-81
2022/05/04 06:46:44;;;;;;;;;27.00;23.00;;;;;;;;5046407;28;47269;-83
2022/05/04 06:49:10;;;;;;;;;27.00;23.00;;;;;;;;5046769;28;45418;-81
2022/05/04 06:51:36;;;;;;;;;24.00;20.67;;;;;;;;5066942;28;45426;-80
2022/05/04 07:03:54;;;;;;;;;25.00;21.00;;;;;;;;4966346;28;45737;-82
2022/05/04 07:31:49;;;;;;;;;30.00;22.67;;;;;;;;5046950;28;45999;-80
2022/05/04 07:43:42;;;;;;;;;31.00;21.67;;;;;;;;5011486;28;45482;-81
2022/05/04 07:56:01;;;;;;;;;25.67;24.00;;;;;;;;4926647;28;45829;-80
2022/05/04 07:59:10;;;;;;;;;28.00;25.33;;;;;;;;4929487;28;45974;-81
2022/05/04 08:08:36;;;;;;;;;31.00;26.67;;;;;;;;4951799;28;45537;-82
2022/05/04 08:18:31;;;;;;;;;;;;;;;;;;;;;
2022/05/04 08:26:49;;;;;;;;;23.33;20.33;;;;;;;;4892295;29;45775;-79
2022/05/04 08:36:19;;;;;;;;;;;;;;;;;;;;;
2022/05/04 08:45:16;;;;;;;;;;;;;;;;;;;;;
2022/05/04 08:57:49;;;;;;;;;21.00;18.67;;;;;;;;4825405;29;45813;-83
2022/05/04 09:00:44;;;;;;;;;;;;;;;;;;;;;
2022/05/04 09:22:33;;;;;;;;;24.00;21.67;;;;;;;;4766698;29;45531;-83
2022/05/04 09:24:59;;;;;;;;;26.67;24.33;;;;;;;;4929500;28;45813;-84
2022/05/04 09:27:31;;;;;;;;;32.33;26.00;;;;;;;;4942660;28;45443;-86
2022/05/04 09:33:57;;;;;;;;;31.67;29.67;;;;;;;;4979542;28;45473;-84
2022/05/04 09:45:21;;;;;;;;;25.33;23.33;;;;;;;;5041315;28;45571;-82
2022/05/04 09:47:54;;;;;;;;;36.00;31.00;;;;;;;;5054902;28;45702;-85
2022/05/04 09:50:39;;;;;;;;;;;;;;;;;;;;;
2022/05/04 09:53:36;;;;;;;;;22.67;20.67;;;;;;;;5053646;28;72540;-82
2022/05/04 09:59:36;;;;;;;;;;;;;;;;;;;;;
2022/05/04 10:02:20;;;;;;;;;;;;;;;;;;;;;
2022/05/04 10:08:17;;;;;;;;;26.67;24.33;;;;;;;;5047208;28;45547;-82
2022/05/04 10:11:19;;;;;;;;;;;;;;;;;;;;;
2022/05/04 10:17:43;;;;;;;;;21.67;19.67;;;;;;;;4990171;28;45437;-82
2022/05/04 10:27:11;;;;;;;;;17.33;15.00;;;;;;;;4903188;28;45949;-82
2022/05/04 10:35:49;;;;;;;;;15.67;14.67;;;;;;;;4941473;28;45600;-84
2022/05/04 10:48:14;;;;;;;;;;;;;;;;;;;;;
2022/05/04 10:54:29;;;;;;;;;12.00;9.67;;;;;;;;4913958;28;45231;-84
2022/05/04 10:57:34;;;;;;;;;;;;;;;;;;;;;
2022/05/04 11:00:45;;;;;;;;;;;;;;;;;;;;;
2022/05/04 11:06:31;;;;;;;;;12.75;11.75;;;;;;;;4877738;28;45990;-81
2022/05/04 11:12:19;;;;;;;;;9.75;9.75;;;;;;;;4910190;28;45469;-82
2022/05/04 11:14:45;;;;;;;;;10.67;9.67;;;;;;;;4922809;28;45628;-85
2022/05/04 11:17:41;;;;;;;;;12.33;10.33;;;;;;;;4913246;28;45463;-82
2022/05/04 11:20:19;;;;;;;;;13.33;10.00;;;;;;;;4991727;28;45395;-84
2022/05/04 11:23:30;;;;;;;;;;;;;;;;;;;;;
2022/05/04 11:26:38;;;;;;;;;13.67;9.33;;;;;;;;4984732;28;74007;-87
2022/05/04 11:33:07;;;;;;;;;6.00;5.33;;;;;;;;4978597;28;45660;-83
2022/05/04 11:52:21;;;;;;;;;;;;;;;;;;;;;
2022/05/04 12:01:31;;;;;;;;;8.00;7.25;;;;;;;;4880071;29;45930;-84
2022/05/04 12:03:58;;;;;;;;;6.00;6.00;;;;;;;;4922202;28;47782;-83
2022/05/04 12:06:37;;;;;;;;;;;;;;;;;;;;;
2022/05/04 12:12:04;;;;;;;;;7.67;6.33;;;;;;;;5008497;28;45614;-84
2022/05/04 12:14:43;;;;;;;;;6.67;5.33;;;;;;;;5051615;28;46134;-79
2022/05/04 12:17:37;;;;;;;;;6.25;5.75;;;;;;;;5049048;28;45570;-82
2022/05/04 12:24:16;;;;;;;;;;;;;;;;;;;;;
2022/05/04 12:33:59;;;;;;;;;;;;;;;;;;;;;
2022/05/04 12:37:10;;;;;;;;;;;;;;;;;;;;;
2022/05/04 12:40:28;;;;;;;;;;;;;;;;;;;;;
2022/05/04 12:52:45;;;;;;;;;4.00;3.00;;;;;;;;4873607;29;45852;-81
2022/05/04 12:59:37;;;;;;;;;;;;;;;;;;;;;
2022/05/04 13:02:01;;;;;;;;;;;;;;;;;;;;;
2022/05/04 13:07:23;;;;;;;;;3.25;2.50;;;;;;;;4877608;29;45622;-84
2022/05/04 13:10:01;;;;;;;;;;;;;;;;;;;;;
2022/05/04 13:12:50;;;;;;;;;2.75;2.75;;;;;;;;4895576;28;72788;-79
2022/05/04 13:15:37;;;;;;;;;4.00;3.00;;;;;;;;4891595;28;46641;-82
2022/05/04 13:21:40;;;;;;;;;2.00;2.00;;;;;;;;4933514;28;45816;-81
2022/05/04 13:24:06;;;;;;;;;4.75;3.75;;;;;;;;4919798;28;46099;-82
2022/05/04 13:26:32;;;;;;;;;2.00;2.00;;;;;;;;5031876;28;46805;-82
2022/05/04 13:29:00;;;;;;;;;2.25;2.00;;;;;;;;5054512;28;45470;-80
2022/05/04 13:31:30;;;;;;;;;3.00;2.00;;;;;;;;5057254;28;45481;-82
2022/05/04 13:33:58;;;;;;;;;1.00;1.00;;;;;;;;5037183;28;46442;-81
2022/05/04 13:36:50;;;;;;;;;3.50;2.00;;;;;;;;5046736;28;45668;-84
2022/05/04 13:39:24;;;;;;;;;2.00;1.75;;;;;;;;5036632;28;45769;-82
2022/05/04 13:42:30;;;;;;;;;1.00;1.00;;;;;;;;5052591;28;45528;-84
2022/05/04 13:45:06;;;;;;;;;0.50;0.50;;;;;;;;5037972;28;46696;-84
2022/05/04 13:47:57;;;;;;;;;1.00;1.00;;;;;;;;5052480;28;45514;-85
2022/05/04 13:53:18;;;;;;;;;3.00;1.00;;;;;;;;5053658;28;45730;-82
2022/05/04 13:55:51;;;;;;;;;4.00;2.25;;;;;;;;5057325;28;45531;-83
2022/05/04 14:01:48;;;;;;;;;;;;;;;;;;;;;
2022/05/04 14:04:22;;;;;;;;;2.00;2.00;;;;;;;;5047937;28;67928;-84
2022/05/04 14:06:50;;;;;;;;;1.50;1.50;;;;;;;;5054763;28;45739;-82
2022/05/04 14:09:16;;;;;;;;;1.50;1.00;;;;;;;;5037354;28;46229;-83
2022/05/04 14:11:44;;;;;;;;;2.50;1.25;;;;;;;;5038676;28;45857;-87
2022/05/04 14:16:53;;;;;;;;;2.25;1.50;;;;;;;;5057281;28;45415;-80
2022/05/04 14:19:20;;;;;;;;;0.67;0.67;;;;;;;;5055407;28;46886;-83
2022/05/04 14:21:46;;;;;;;;;1.50;1.50;;;;;;;;5038680;28;45384;-82
2022/05/04 14:24:16;;;;;;;;;2.00;2.00;;;;;;;;5036336;28;45442;-82
2022/05/04 14:26:42;;;;;;;;;2.00;1.00;;;;;;;;5018017;28;45756;-82
2022/05/04 14:29:19;;;;;;;;;3.67;2.67;;;;;;;;5018994;28;47063;-81
2022/05/04 14:32:14;;;;;;;;;2.67;2.67;;;;;;;;5036146;28;45416;-82
2022/05/04 14:38:40;;;;;;;;;;;;;;;;;;;;;
2022/05/04 14:48:24;;;;;;;;;2.00;2.00;;;;;;;;4960510;28;45522;-82
2022/05/04 15:53:36;;;;;;;;;3.00;3.00;;;;;;;;4888531;29;45730;-85
2022/05/04 15:56:50;;;;;;;;;;;;;;;;;;;;;
2022/05/04 15:59:16;;;;;;;;;3.67;3.67;;;;;;;;4833120;29;70583;-83
2022/05/04 16:05:21;;;;;;;;;5.00;5.00;;;;;;;;4896508;28;45442;-81
2022/05/04 16:08:24;;;;;;;;;5.00;4.00;;;;;;;;4871520;28;47927;-84
2022/05/04 16:11:50;;;;;;;;;3.00;3.00;;;;;;;;4946134;28;45946;-80
2022/05/04 16:14:26;;;;;;;;;4.00;3.00;;;;;;;;5005818;28;45628;-84
2022/05/04 16:22:41;;;;;;;;;;;;;;;;;;;;;
2022/05/04 16:25:13;;;;;;;;;4.33;4.33;;;;;;;;5060059;28;67685;-81
2022/05/04 16:27:42;;;;;;;;;3.00;3.00;;;;;;;;5048766;28;46023;-81
2022/05/04 16:30:13;;;;;;;;;8.00;5.67;;;;;;;;5051614;28;46156;-83
2022/05/04 16:32:41;;;;;;;;;5.00;5.00;;;;;;;;5070410;27;45875;-81
2022/05/04 16:41:45;;;;;;;;;6.00;6.00;;;;;;;;4987558;28;45622;-80
2022/05/04 16:44:28;;;;;;;;;7.00;6.00;;;;;;;;4992046;28;46035;-80
2022/05/04 16:47:16;;;;;;;;;4.33;3.00;;;;;;;;4990828;28;45505;-79
2022/05/04 16:49:50;;;;;;;;;3.00;3.00;;;;;;;;4987309;28;45518;-80
2022/05/04 16:52:22;;;;;;;;;5.00;5.00;;;;;;;;4991323;28;46267;-80
2022/05/04 16:54:59;;;;;;;;;1.00;1.00;;;;;;;;4991144;28;45361;-81
2022/05/04 16:57:42;;;;;;;;;5.00;4.00;;;;;;;;4984649;28;45666;-81
2022/05/04 17:03:08;;;;;;;;;9.67;6.00;;;;;;;;5039134;28;45818;-80
2022/05/04 17:05:39;;;;;;;;;7.33;7.00;;;;;;;;5062329;28;46820;-81
2022/05/04 17:08:08;;;;;;;;;4.67;4.33;;;;;;;;5062253;28;45755;-82
2022/05/04 17:11:16;;;;;;;;;5.00;5.00;;;;;;;;5046016;28;45589;-81
2022/05/04 17:13:49;;;;;;;;;7.00;7.00;;;;;;;;5072480;27;45847;-82
2022/05/04 17:16:48;;;;;;;;;16.67;14.67;;;;;;;;5049578;28;45395;-79
2022/05/04 17:19:14;;;;;;;;;20.33;18.67;;;;;;;;4989512;28;45611;-80
2022/05/04 17:21:48;;;;;;;;;22.67;18.67;;;;;;;;4989259;28;45560;-81
2022/05/04 17:24:13;;;;;;;;;24.67;19.67;;;;;;;;4976144;28;46782;-81
2022/05/04 17:26:42;;;;;;;;;9.00;7.67;;;;;;;;4991916;28;45838;-80
2022/05/04 17:29:19;;;;;;;;;10.33;10.33;;;;;;;;4994282;28;45901;-81
2022/05/04 17:38:00;;;;;;;;;11.33;8.67;;;;;;;;5016266;28;45444;-80
2022/05/04 17:59:21;;;;;;;;;7.33;6.00;;;;;;;;4948284;28;45827;-81
2022/05/04 18:04:54;;;;;;;;;14.33;10.00;;;;;;;;5018542;28;45535;-81
2022/05/04 18:16:31;;;;;;;;;9.33;9.00;;;;;;;;5020361;28;44989;-80
2022/05/04 18:37:32;;;;;;;;;7.67;7.67;;;;;;;;4955591;28;45596;-80
2022/05/04 18:40:35;;;;;;;;;7.00;7.00;;;;;;;;5001907;28;45828;-80
2022/05/04 18:43:16;;;;;;;;;;;;;;;;;;;;;
2022/05/04 18:49:10;;;;;;;;;9.33;7.33;;;;;;;;4918389;28;45661;-80
2022/05/04 18:51:45;;;;;;;;;7.00;5.33;;;;;;;;5059520;28;45953;-79
2022/05/04 18:54:13;;;;;;;;;6.33;5.00;;;;;;;;5031350;28;45668;-81
2022/05/04 18:56:59;;;;;;;;;;;;;;;;;;;;;
2022/05/04 18:59:31;;;;;;;;;5.00;5.00;;;;;;;;5056337;28;72526;-80
2022/05/04 19:02:40;;;;;;;;;;;;;;;;;;;;;
2022/05/04 19:08:27;;;;;;;;;5.67;5.33;;;;;;;;4928671;28;45751;-81
2022/05/04 19:11:09;;;;;;;;;10.33;8.67;;;;;;;;5039462;28;45277;-82
2022/05/04 19:13:40;;;;;;;;;9.33;8.33;;;;;;;;5053738;28;45475;-81
2022/05/04 19:16:11;;;;;;;;;7.67;7.67;;;;;;;;5039511;28;46273;-81
2022/05/04 19:18:51;;;;;;;;;9.00;8.33;;;;;;;;5055421;28;45501;-81
2022/05/04 19:21:36;;;;;;;;;10.00;9.00;;;;;;;;5038940;28;45770;-81
2022/05/04 19:24:01;;;;;;;;;12.33;8.00;;;;;;;;5049457;28;46138;-79
2022/05/04 19:26:33;;;;;;;;;10.33;8.33;;;;;;;;5037874;28;47250;-82
2022/05/04 19:29:06;;;;;;;;;10.33;8.67;;;;;;;;5052325;28;47090;-81
2022/05/04 19:31:38;;;;;;;;;12.33;10.33;;;;;;;;5047109;28;46945;-82
2022/05/04 19:34:04;;;;;;;;;10.00;9.67;;;;;;;;5048464;28;45416;-81
2022/05/04 19:36:37;;;;;;;;;8.00;7.00;;;;;;;;5050070;28;45751;-82
2022/05/04 19:39:02;;;;;;;;;13.00;9.00;;;;;;;;5054577;28;48279;-82
2022/05/04 19:41:52;;;;;;;;;8.33;8.33;;;;;;;;5065599;28;45465;-82
2022/05/04 19:44:20;;;;;;;;;11.67;9.67;;;;;;;;5061125;28;45660;-81
2022/05/04 19:46:49;;;;;;;;;13.33;10.33;;;;;;;;5065542;28;45863;-84
2022/05/04 19:49:15;;;;;;;;;13.67;11.00;;;;;;;;5066738;28;45797;-81
2022/05/04 19:51:41;;;;;;;;;8.33;7.67;;;;;;;;5067358;28;45940;-82
2022/05/04 19:54:07;;;;;;;;;8.00;7.00;;;;;;;;5064471;28;45576;-81
2022/05/04 19:56:36;;;;;;;;;10.67;10.67;;;;;;;;5063214;27;45833;-82
2022/05/04 19:59:03;;;;;;;;;10.00;8.67;;;;;;;;5074278;27;46076;-82
2022/05/04 20:01:29;;;;;;;;;10.00;8.67;;;;;;;;5079110;27;45421;-82
2022/05/04 20:04:01;;;;;;;;;15.33;14.00;;;;;;;;5068002;28;46582;-82
2022/05/04 20:06:26;;;;;;;;;15.33;12.33;;;;;;;;5066465;28;45604;-82
2022/05/04 20:09:07;;;;;;;;;14.33;14.00;;;;;;;;5065129;27;46540;-82
2022/05/04 20:11:47;;;;;;;;;14.00;12.67;;;;;;;;5067809;28;45983;-82
2022/05/04 20:14:14;;;;;;;;;13.67;11.67;;;;;;;;5076481;28;45721;-82
2022/05/04 20:16:45;;;;;;;;;18.33;17.33;;;;;;;;5065545;28;46132;-83
2022/05/04 20:19:25;;;;;;;;;14.00;10.00;;;;;;;;5087656;27;48446;-79
2022/05/04 20:21:53;;;;;;;;;16.00;14.00;;;;;;;;5071487;27;44902;-81
2022/05/04 20:24:22;;;;;;;;;17.00;16.00;;;;;;;;5064895;28;44897;-83
2022/05/04 20:26:51;;;;;;;;;21.33;18.67;;;;;;;;5053380;28;45671;-82
2022/05/04 20:29:17;;;;;;;;;17.67;14.67;;;;;;;;5038292;28;45905;-82
2022/05/04 20:32:03;;;;;;;;;20.33;17.33;;;;;;;;5046690;28;45873;-82
2022/05/04 20:34:29;;;;;;;;;14.67;13.00;;;;;;;;5045453;28;45438;-84
2022/05/04 20:36:54;;;;;;;;;18.00;17.00;;;;;;;;5052090;28;46827;-82
2022/05/04 20:39:20;;;;;;;;;16.00;15.00;;;;;;;;5037227;28;45630;-82
2022/05/04 20:41:46;;;;;;;;;15.67;15.00;;;;;;;;5033977;28;45542;-82
2022/05/04 20:44:16;;;;;;;;;15.33;13.33;;;;;;;;5050011;28;45245;-82
2022/05/04 20:46:43;;;;;;;;;15.00;12.67;;;;;;;;5032399;28;47101;-83
2022/05/04 20:49:09;;;;;;;;;15.00;14.67;;;;;;;;5024704;28;46604;-83
2022/05/04 20:54:19;;;;;;;;;16.67;13.67;;;;;;;;5054351;28;45395;-83
2022/05/04 20:56:45;;;;;;;;;16.33;14.33;;;;;;;;5047477;28;45732;-83
2022/05/04 20:59:22;;;;;;;;;18.00;15.67;;;;;;;;5028744;28;45765;-83
2022/05/04 21:01:47;;;;;;;;;16.67;13.67;;;;;;;;5055727;28;45236;-83
2022/05/04 21:04:13;;;;;;;;;15.33;14.00;;;;;;;;5043459;28;44787;-82
2022/05/04 21:06:39;;;;;;;;;14.33;13.00;;;;;;;;5036092;28;45644;-82
2022/05/04 21:09:05;;;;;;;;;14.33;13.33;;;;;;;;5034503;28;45377;-83
2022/05/04 21:11:30;;;;;;;;;18.00;15.33;;;;;;;;5017954;28;45896;-84
2022/05/04 21:13:57;;;;;;;;;18.00;14.33;;;;;;;;5035669;28;45331;-82
2022/05/04 21:16:23;;;;;;;;;20.67;16.00;;;;;;;;5052021;28;45490;-82
2022/05/04 21:18:48;;;;;;;;;18.33;16.33;;;;;;;;5059204;28;45572;-83
2022/05/04 21:21:19;;;;;;;;;19.00;16.67;;;;;;;;5041449;28;45867;-82
2022/05/04 21:23:46;;;;;;;;;16.67;13.33;;;;;;;;5042743;28;45395;-82
2022/05/04 21:26:12;;;;;;;;;21.67;16.33;;;;;;;;5060434;28;45498;-83
2022/05/04 21:28:54;;;;;;;;;18.67;16.00;;;;;;;;5042963;28;47646;-83
2022/05/04 21:32:02;;;;;;;;;;;;;;;;;;;;;
2022/05/04 22:00:34;;;;;;;;;;;;;;;;;;;;;
2022/05/04 22:03:29;;;;;;;;;20.67;15.67;;;;;;;;4944511;28;45569;-81
2022/05/04 22:34:16;;;;;;;;;21.67;16.00;;;;;;;;4982188;28;45868;-81
2022/05/04 22:37:16;;;;;;;;;;;;;;;;;;;;;
2022/05/04 22:40:33;;;;;;;;;21.00;19.00;;;;;;;;4973347;28;74506;-82
2022/05/04 22:53:00;;;;;;;;;17.00;16.00;;;;;;;;4944935;28;45315;-83
2022/05/04 23:16:18;;;;;;;;;;;;;;;;;;;;;
2022/05/04 23:53:10;;;;;;;;;14.00;13.67;;;;;;;;4740383;30;45419;-82
